createdAt,value
2022-11-17T00:00:24.395Z,15.68
2022-11-17T00:00:55.945Z,15.35
2022-11-17T00:01:27.482Z,15.00
2022-11-17T00:01:59.062Z,15.23
2022-11-17T00:02:30.633Z,17.20
2022-11-17T00:03:02.296Z,16.42
2022-11-17T00:03:34.357Z,14.73
2022-11-17T00:04:06.167Z,15.80
2022-11-17T00:04:37.684Z,15.82
2022-11-17T00:05:09.354Z,16.30
2022-11-17T00:05:40.877Z,16.38
2022-11-17T00:06:12.615Z,15.57
2022-11-17T00:06:44.742Z,15.97
2022-11-17T00:07:16.332Z,15.63
2022-11-17T00:07:49.093Z,16.38
2022-11-17T00:08:20.642Z,16.15
2022-11-17T00:08:53.040Z,16.25
2022-11-17T00:09:25.257Z,16.48
2022-11-17T00:09:56.785Z,15.73
2022-11-17T00:10:28.339Z,16.75
2022-11-17T00:11:03.767Z,15.27
2022-11-17T00:11:55.243Z,16.17
2022-11-17T00:12:45.328Z,16.00
2022-11-17T00:13:35.341Z,14.65
2022-11-17T00:14:30.418Z,15.55
2022-11-17T00:15:02.030Z,15.35
2022-11-17T00:15:33.665Z,16.10
2022-11-17T00:16:05.473Z,15.70
2022-11-17T00:16:37.018Z,15.90
2022-11-17T00:17:11.294Z,16.23
2022-11-17T00:17:42.838Z,16.55
2022-11-17T00:18:32.861Z,15.88
2022-11-17T00:19:23.346Z,17.02
2022-11-17T00:20:13.601Z,15.68
2022-11-17T00:21:03.318Z,16.80
2022-11-17T00:21:35.011Z,15.88
2022-11-17T00:22:06.562Z,15.98
2022-11-17T00:22:38.093Z,17.02
2022-11-17T00:23:09.615Z,16.45
2022-11-17T00:23:47.348Z,16.73
2022-11-17T00:24:19.192Z,17.50
2022-11-17T00:24:51.261Z,17.02
2022-11-17T00:25:22.884Z,17.10
2022-11-17T00:25:54.399Z,17.63
2022-11-17T00:26:28.676Z,16.50
2022-11-17T00:27:03.253Z,16.88
2022-11-17T00:27:34.788Z,16.48
2022-11-17T00:28:06.305Z,16.88
2022-11-17T00:28:37.926Z,16.90
2022-11-17T00:29:09.477Z,17.25
2022-11-17T00:29:41.033Z,16.60
2022-11-17T00:30:33.053Z,17.63
2022-11-17T00:31:23.322Z,16.77
2022-11-17T00:32:13.490Z,15.90
2022-11-17T00:33:03.274Z,17.52
2022-11-17T00:33:53.267Z,16.05
2022-11-17T00:34:24.796Z,16.88
2022-11-17T00:34:56.401Z,15.68
2022-11-17T00:35:27.930Z,17.15
2022-11-17T00:35:59.557Z,17.17
2022-11-17T00:36:35.740Z,16.23
2022-11-17T00:37:08.601Z,16.98
2022-11-17T00:37:59.658Z,16.90
2022-11-17T00:38:31.176Z,16.30
2022-11-17T00:39:03.869Z,17.35
2022-11-17T00:39:35.823Z,18.30
2022-11-17T00:40:07.700Z,17.13
2022-11-17T00:40:39.329Z,17.33
2022-11-17T00:41:10.855Z,16.80
2022-11-17T00:41:42.795Z,17.45
2022-11-17T00:42:14.297Z,17.13
2022-11-17T00:42:45.837Z,17.73
2022-11-17T00:43:17.398Z,16.08
2022-11-17T00:43:48.942Z,17.63
2022-11-17T00:44:20.512Z,18.27
2022-11-17T00:44:52.042Z,17.27
2022-11-17T00:45:23.578Z,17.15
2022-11-17T00:45:55.093Z,17.38
2022-11-17T00:46:26.962Z,17.60
2022-11-17T00:46:58.528Z,17.42
2022-11-17T00:47:30.056Z,18.08
2022-11-17T00:48:01.585Z,17.30
2022-11-17T00:48:33.113Z,18.55
2022-11-17T00:49:05.930Z,17.77
2022-11-17T00:49:37.485Z,17.42
2022-11-17T00:50:09.766Z,16.88
2022-11-17T00:50:41.284Z,17.08
2022-11-17T00:51:12.810Z,17.83
2022-11-17T00:51:44.341Z,17.58
2022-11-17T00:52:15.885Z,18.10
2022-11-17T00:52:47.438Z,17.23
2022-11-17T00:53:18.966Z,17.33
2022-11-17T00:53:50.566Z,18.35
2022-11-17T00:54:22.875Z,17.77
2022-11-17T00:54:54.417Z,18.85
2022-11-17T00:55:26.073Z,17.77
2022-11-17T00:55:57.644Z,18.00
2022-11-17T00:56:29.450Z,17.48
2022-11-17T00:57:01.024Z,18.63
2022-11-17T00:57:32.578Z,18.98
2022-11-17T00:58:04.133Z,18.73
2022-11-17T00:58:36.476Z,17.80
2022-11-17T00:59:08.088Z,17.33
2022-11-17T00:59:39.593Z,17.33
2022-11-17T01:00:11.559Z,17.35
2022-11-17T01:00:43.071Z,17.30
2022-11-17T01:01:14.839Z,18.60
2022-11-17T01:01:46.636Z,18.05
2022-11-17T01:02:18.309Z,17.10
2022-11-17T01:02:49.902Z,16.40
2022-11-17T01:03:21.468Z,17.48
2022-11-17T01:04:03.117Z,18.17
2022-11-17T01:04:34.806Z,16.70
2022-11-17T01:05:06.547Z,17.48
2022-11-17T01:05:38.163Z,17.95
2022-11-17T01:06:15.318Z,17.98
2022-11-17T01:06:49.065Z,17.95
2022-11-17T01:07:22.819Z,17.40
2022-11-17T01:07:54.426Z,17.63
2022-11-17T01:08:26.008Z,17.67
2022-11-17T01:09:05.866Z,17.55
2022-11-17T01:09:37.390Z,16.77
2022-11-17T01:10:09.400Z,17.60
2022-11-17T01:10:40.947Z,18.15
2022-11-17T01:11:15.474Z,18.23
2022-11-17T01:11:48.600Z,17.95
2022-11-17T01:12:20.134Z,18.08
2022-11-17T01:12:51.670Z,17.40
2022-11-17T01:13:23.209Z,16.48
2022-11-17T01:13:57.875Z,16.95
2022-11-17T01:14:30.957Z,17.08
2022-11-17T01:15:02.531Z,17.40
2022-11-17T01:15:34.694Z,18.02
2022-11-17T01:16:12.615Z,16.58
2022-11-17T01:16:44.636Z,16.75
2022-11-17T01:17:16.173Z,17.70
2022-11-17T01:17:47.859Z,17.05
2022-11-17T01:18:19.381Z,16.35
2022-11-17T01:18:51.951Z,17.00
2022-11-17T01:19:24.321Z,17.77
2022-11-17T01:19:55.866Z,16.70
2022-11-17T01:20:27.415Z,17.23
2022-11-17T01:21:09.151Z,17.83
2022-11-17T01:21:40.812Z,16.85
2022-11-17T01:22:13.071Z,16.48
2022-11-17T01:22:44.589Z,16.55
2022-11-17T01:23:16.272Z,16.58
2022-11-17T01:23:49.442Z,17.02
2022-11-17T01:24:21.061Z,16.70
2022-11-17T01:24:52.597Z,17.30
2022-11-17T01:25:24.126Z,17.27
2022-11-17T01:26:01.634Z,18.08
2022-11-17T01:26:35.295Z,16.27
2022-11-17T01:27:06.845Z,16.65
2022-11-17T01:27:38.371Z,16.38
2022-11-17T01:28:09.905Z,17.50
2022-11-17T01:28:42.257Z,17.15
2022-11-17T01:29:17.105Z,17.30
2022-11-17T01:29:48.729Z,17.75
2022-11-17T01:30:20.341Z,17.52
2022-11-17T01:30:59.530Z,17.80
2022-11-17T01:31:34.046Z,17.60
2022-11-17T01:32:05.585Z,16.40
2022-11-17T01:32:37.155Z,16.70
2022-11-17T01:33:08.685Z,17.20
2022-11-17T01:33:40.583Z,17.33
2022-11-17T01:34:12.584Z,16.88
2022-11-17T01:34:44.212Z,16.48
2022-11-17T01:35:15.827Z,16.77
2022-11-17T01:35:47.344Z,17.65
2022-11-17T01:36:24.760Z,17.75
2022-11-17T01:37:14.537Z,16.90
2022-11-17T01:37:46.098Z,15.93
2022-11-17T01:38:17.609Z,16.92
2022-11-17T01:38:49.533Z,16.92
2022-11-17T01:39:21.340Z,17.17
2022-11-17T01:39:52.881Z,17.10
2022-11-17T01:40:24.435Z,17.52
2022-11-17T01:40:58.490Z,17.25
2022-11-17T01:41:30.049Z,17.00
2022-11-17T01:42:13.109Z,17.27
2022-11-17T01:42:44.628Z,17.10
2022-11-17T01:43:16.193Z,17.47
2022-11-17T01:43:48.901Z,16.80
2022-11-17T01:44:44.442Z,16.88
2022-11-17T01:45:20.383Z,15.75
2022-11-17T01:45:51.933Z,16.42
2022-11-17T01:46:26.161Z,16.02
2022-11-17T01:47:00.879Z,16.25
2022-11-17T01:47:38.770Z,16.83
2022-11-17T01:48:13.552Z,16.63
2022-11-17T01:48:46.131Z,16.48
2022-11-17T01:49:28.635Z,17.75
2022-11-17T01:50:26.204Z,17.60
2022-11-17T01:50:58.446Z,16.38
2022-11-17T01:51:32.921Z,17.60
2022-11-17T01:52:07.825Z,17.63
2022-11-17T01:52:41.032Z,16.13
2022-11-17T01:53:17.411Z,16.90
2022-11-17T01:53:51.340Z,17.48
2022-11-17T01:54:28.894Z,17.88
2022-11-17T01:55:01.800Z,16.95
2022-11-17T01:55:38.449Z,17.08
2022-11-17T01:56:14.781Z,18.02
2022-11-17T01:56:49.589Z,17.60
2022-11-17T01:57:26.695Z,17.42
2022-11-17T01:58:07.589Z,17.95
2022-11-17T01:58:43.101Z,16.83
2022-11-17T01:59:31.079Z,17.98
2022-11-17T02:00:07.182Z,17.48
2022-11-17T02:01:56.688Z,17.58
2022-11-17T02:02:28.777Z,16.95
2022-11-17T02:03:00.849Z,17.98
2022-11-17T02:03:35.535Z,18.38
2022-11-17T02:04:07.333Z,18.88
2022-11-17T02:04:49.689Z,18.35
2022-11-17T02:05:39.584Z,18.38
2022-11-17T02:06:20.832Z,16.65
2022-11-17T02:06:59.672Z,18.08
2022-11-17T02:07:37.762Z,17.67
2022-11-17T02:08:11.101Z,18.20
2022-11-17T02:08:45.835Z,18.67
2022-11-17T02:09:17.598Z,18.27
2022-11-17T02:09:49.677Z,17.73
2022-11-17T02:10:21.201Z,19.10
2022-11-17T02:10:53.816Z,19.50
2022-11-17T02:11:26.008Z,18.75
2022-11-17T02:11:59.093Z,18.08
2022-11-17T02:12:32.695Z,18.50
2022-11-17T02:13:05.466Z,18.65
2022-11-17T02:13:38.949Z,17.60
2022-11-17T02:14:11.105Z,18.27
2022-11-17T02:14:42.787Z,17.15
2022-11-17T02:15:14.462Z,18.50
2022-11-17T02:15:45.992Z,17.88
2022-11-17T02:16:18.003Z,18.60
2022-11-17T02:16:49.579Z,17.98
2022-11-17T02:17:23.464Z,17.75
2022-11-17T02:17:56.216Z,19.08
2022-11-17T02:18:27.781Z,17.52
2022-11-17T02:18:59.432Z,17.70
2022-11-17T02:19:38.836Z,18.65
2022-11-17T02:20:10.649Z,17.55
2022-11-17T02:20:53.540Z,19.08
2022-11-17T02:21:46.748Z,17.33
2022-11-17T02:23:04.918Z,17.50
2022-11-17T02:23:51.427Z,16.23
2022-11-17T02:24:31.296Z,16.73
2022-11-17T02:25:27.108Z,17.38
2022-11-17T02:26:15.134Z,16.88
2022-11-17T02:26:49.248Z,16.67
2022-11-17T02:27:48.869Z,18.60
2022-11-17T02:28:23.794Z,17.23
2022-11-17T02:29:09.410Z,17.40
2022-11-17T02:30:10.317Z,17.13
2022-11-17T02:30:58.063Z,15.73
2022-11-17T02:31:42.618Z,16.35
2022-11-17T02:32:24.657Z,17.25
2022-11-17T02:33:15.661Z,17.50
2022-11-17T02:33:59.347Z,17.05
2022-11-17T02:34:51.973Z,16.77
2022-11-17T02:35:26.887Z,16.85
2022-11-17T02:36:04.296Z,17.42
2022-11-17T02:36:46.470Z,16.85
2022-11-17T02:37:39.523Z,17.65
2022-11-17T02:38:23.605Z,16.17
2022-11-17T02:39:14.397Z,16.27
2022-11-17T02:40:10.548Z,16.67
2022-11-17T02:40:48.444Z,16.90
2022-11-17T02:41:24.001Z,16.50
2022-11-17T02:42:04.317Z,18.55
2022-11-17T02:43:03.966Z,18.02
2022-11-17T02:44:03.261Z,16.10
2022-11-17T02:44:42.305Z,16.77
2022-11-17T02:45:22.473Z,16.17
2022-11-17T02:46:14.605Z,16.98
2022-11-17T02:47:10.873Z,16.30
2022-11-17T02:47:44.713Z,16.50
2022-11-17T02:48:28.405Z,16.98
2022-11-17T02:49:06.085Z,16.00
2022-11-17T02:49:41.209Z,16.10
2022-11-17T02:50:14.021Z,17.33
2022-11-17T02:50:47.782Z,16.88
2022-11-17T02:51:21.688Z,16.80
2022-11-17T02:51:56.315Z,18.35
2022-11-17T02:52:30.586Z,16.95
2022-11-17T02:53:03.390Z,17.52
2022-11-17T02:53:36.175Z,17.50
2022-11-17T02:54:09.054Z,17.60
2022-11-17T02:54:40.581Z,17.88
2022-11-17T02:55:12.346Z,17.70
2022-11-17T02:55:50.446Z,17.63
2022-11-17T02:56:22.501Z,18.02
2022-11-17T02:56:54.036Z,18.08
2022-11-17T02:57:33.534Z,17.50
2022-11-17T02:58:11.930Z,17.35
2022-11-17T02:58:43.451Z,16.83
2022-11-17T02:59:18.148Z,16.65
2022-11-17T02:59:50.017Z,17.10
2022-11-17T03:00:21.613Z,16.33
2022-11-17T03:01:22.378Z,17.65
2022-11-17T03:02:14.063Z,16.92
2022-11-17T03:03:13.605Z,16.02
2022-11-17T03:04:11.028Z,16.58
2022-11-17T03:05:19.170Z,15.90
2022-11-17T03:05:50.645Z,16.60
2022-11-17T03:06:45.793Z,17.23
2022-11-17T03:07:33.009Z,15.27
2022-11-17T03:08:33.294Z,16.30
2022-11-17T03:09:32.505Z,15.73
2022-11-17T03:10:12.018Z,15.65
2022-11-17T03:11:00.144Z,15.70
2022-11-17T03:12:13.565Z,16.25
2022-11-17T03:12:59.441Z,15.40
2022-11-17T03:13:45.858Z,15.45
2022-11-17T03:14:40.394Z,16.02
2022-11-17T03:15:36.632Z,16.60
2022-11-17T03:16:29.685Z,15.68
2022-11-17T03:17:13.371Z,14.07
2022-11-17T03:17:51.086Z,15.88
2022-11-17T03:18:50.777Z,16.33
2022-11-17T03:19:57.846Z,15.23
2022-11-17T03:20:46.242Z,14.85
2022-11-17T03:21:28.846Z,16.23
2022-11-17T03:22:12.908Z,15.93
2022-11-17T03:23:13.806Z,17.08
2022-11-17T03:24:09.394Z,15.48
2022-11-17T03:24:52.361Z,15.38
2022-11-17T03:25:27.157Z,16.20
2022-11-17T03:25:59.814Z,15.65
2022-11-17T03:26:35.850Z,16.60
2022-11-17T03:27:16.879Z,16.45
2022-11-17T03:27:53.563Z,16.10
2022-11-17T03:28:29.283Z,15.82
2022-11-17T03:29:02.636Z,15.55
2022-11-17T03:29:36.780Z,16.33
2022-11-17T03:30:10.297Z,16.83
2022-11-17T03:30:44.025Z,16.60
2022-11-17T03:31:17.728Z,17.35
2022-11-17T03:31:53.465Z,17.23
2022-11-17T03:32:27.892Z,18.58
2022-11-17T03:33:05.238Z,16.95
2022-11-17T03:33:39.207Z,17.77
2022-11-17T03:34:15.625Z,16.88
2022-11-17T03:34:55.658Z,16.90
2022-11-17T03:35:31.963Z,16.75
2022-11-17T03:36:35.634Z,17.17
2022-11-17T03:37:09.370Z,16.60
2022-11-17T03:37:45.794Z,15.02
2022-11-17T03:38:20.693Z,16.00
2022-11-17T03:39:02.555Z,16.42
2022-11-17T03:39:37.654Z,15.20
2022-11-17T03:40:12.687Z,15.27
2022-11-17T03:40:47.503Z,15.10
2022-11-17T03:41:20.939Z,14.82
2022-11-17T03:41:59.801Z,15.57
2022-11-17T03:42:34.594Z,15.57
2022-11-17T03:43:09.491Z,16.02
2022-11-17T03:43:43.198Z,15.73
2022-11-17T03:44:16.302Z,15.55
2022-11-17T03:44:52.881Z,16.02
2022-11-17T03:45:30.375Z,15.07
2022-11-17T03:46:10.053Z,14.48
2022-11-17T03:46:44.459Z,15.15
2022-11-17T03:47:18.794Z,14.90
2022-11-17T03:48:00.606Z,13.98
2022-11-17T03:48:37.998Z,14.70
2022-11-17T03:49:35.518Z,15.60
2022-11-17T03:50:15.943Z,15.35
2022-11-17T03:50:51.970Z,14.65
2022-11-17T03:51:27.240Z,14.90
2022-11-17T03:51:58.850Z,15.18
2022-11-17T03:52:31.193Z,15.80
2022-11-17T03:53:04.208Z,15.13
2022-11-17T03:53:36.926Z,15.77
2022-11-17T03:54:09.567Z,15.57
2022-11-17T03:54:41.641Z,15.75
2022-11-17T03:55:14.089Z,15.90
2022-11-17T03:55:54.249Z,15.25
2022-11-17T03:56:38.226Z,14.55
2022-11-17T03:57:29.929Z,15.38
2022-11-17T03:58:07.556Z,15.10
2022-11-17T03:58:46.614Z,15.02
2022-11-17T03:59:33.849Z,14.07
2022-11-17T04:00:11.015Z,14.05
2022-11-17T04:00:43.349Z,14.05
2022-11-17T04:01:15.570Z,14.80
2022-11-17T04:01:47.311Z,16.15
2022-11-17T04:02:20.659Z,15.80
2022-11-17T04:02:58.642Z,14.50
2022-11-17T04:03:32.634Z,13.88
2022-11-17T04:04:04.561Z,15.13
2022-11-17T04:04:54.877Z,13.85
2022-11-17T04:05:27.138Z,15.45
2022-11-17T04:05:58.682Z,15.77
2022-11-17T04:06:30.243Z,15.13
2022-11-17T04:07:01.839Z,14.75
2022-11-17T04:07:42.562Z,14.75
2022-11-17T04:08:14.227Z,15.02
2022-11-17T04:08:45.811Z,14.70
2022-11-17T04:09:22.880Z,14.55
2022-11-17T04:09:55.812Z,14.98
2022-11-17T04:10:27.438Z,15.80
2022-11-17T04:11:17.778Z,14.68
2022-11-17T04:12:07.962Z,14.85
2022-11-17T04:12:57.986Z,14.55
2022-11-17T04:13:48.140Z,14.65
2022-11-17T04:14:38.193Z,13.38
2022-11-17T04:15:29.450Z,13.65
2022-11-17T04:16:01.647Z,13.63
2022-11-17T04:16:33.193Z,14.27
2022-11-17T04:17:04.751Z,13.68
2022-11-17T04:17:36.271Z,15.48
2022-11-17T04:18:07.851Z,15.60
2022-11-17T04:18:39.376Z,15.02
2022-11-17T04:19:11.050Z,14.88
2022-11-17T04:19:42.585Z,14.30
2022-11-17T04:20:14.442Z,15.50
2022-11-17T04:20:49.234Z,15.77
2022-11-17T04:21:20.806Z,15.25
2022-11-17T04:21:52.330Z,14.23
2022-11-17T04:22:23.880Z,15.07
2022-11-17T04:23:07.459Z,16.05
2022-11-17T04:23:39.053Z,14.88
2022-11-17T04:24:10.654Z,14.50
2022-11-17T04:24:42.180Z,14.80
2022-11-17T04:25:33.727Z,15.85
2022-11-17T04:26:23.471Z,15.55
2022-11-17T04:27:14.014Z,15.88
2022-11-17T04:28:03.961Z,14.73
2022-11-17T04:28:38.872Z,14.90
2022-11-17T04:29:10.408Z,15.10
2022-11-17T04:29:41.933Z,14.27
2022-11-17T04:30:13.775Z,14.75
2022-11-17T04:30:45.295Z,15.50
2022-11-17T04:31:25.934Z,15.07
2022-11-17T04:31:57.495Z,16.25
2022-11-17T04:32:29.025Z,14.75
2022-11-17T04:33:00.536Z,16.02
2022-11-17T04:33:32.948Z,14.75
2022-11-17T04:34:05.745Z,15.70
2022-11-17T04:34:40.837Z,15.73
2022-11-17T04:35:12.381Z,16.48
2022-11-17T04:35:50.297Z,14.80
2022-11-17T04:36:24.508Z,14.65
2022-11-17T04:36:56.093Z,16.02
2022-11-17T04:37:27.621Z,15.05
2022-11-17T04:37:59.133Z,15.60
2022-11-17T04:38:30.709Z,15.05
2022-11-17T04:39:03.087Z,15.38
2022-11-17T04:39:37.654Z,15.63
2022-11-17T04:40:09.897Z,15.38
2022-11-17T04:41:01.368Z,15.55
2022-11-17T04:41:53.771Z,14.68
2022-11-17T04:42:25.365Z,15.15
2022-11-17T04:42:56.874Z,14.82
2022-11-17T04:43:28.892Z,15.63
2022-11-17T04:44:01.498Z,15.60
2022-11-17T04:44:33.128Z,15.10
2022-11-17T04:45:05.074Z,14.95
2022-11-17T04:45:36.582Z,15.60
2022-11-17T04:46:08.101Z,15.82
2022-11-17T04:46:41.094Z,15.00
2022-11-17T04:47:12.604Z,15.68
2022-11-17T04:47:44.133Z,14.65
2022-11-17T04:48:15.641Z,13.98
2022-11-17T04:48:47.769Z,14.23
2022-11-17T04:49:20.632Z,13.93
2022-11-17T04:49:52.152Z,14.27
2022-11-17T04:50:23.706Z,14.48
2022-11-17T04:50:56.845Z,15.02
2022-11-17T04:51:29.312Z,14.82
2022-11-17T04:52:01.335Z,15.27
2022-11-17T04:52:32.897Z,13.43
2022-11-17T04:53:04.434Z,14.10
2022-11-17T04:53:36.293Z,14.73
2022-11-17T04:54:09.837Z,14.45
2022-11-17T04:54:41.374Z,14.15
2022-11-17T04:55:13.065Z,13.88
2022-11-17T04:55:44.601Z,14.20
2022-11-17T04:56:16.622Z,15.02
2022-11-17T04:56:48.353Z,13.27
2022-11-17T04:57:19.900Z,14.75
2022-11-17T04:57:51.418Z,14.80
2022-11-17T04:58:22.933Z,14.82
2022-11-17T04:58:54.731Z,14.60
2022-11-17T04:59:26.374Z,14.45
2022-11-17T04:59:57.887Z,14.05
2022-11-17T05:00:29.454Z,14.73
2022-11-17T05:01:12.400Z,14.65
2022-11-17T05:01:44.381Z,14.02
2022-11-17T05:02:15.986Z,15.18
2022-11-17T05:02:47.577Z,14.13
2022-11-17T05:03:19.107Z,14.85
2022-11-17T05:04:01.696Z,15.00
2022-11-17T05:04:51.826Z,15.60
2022-11-17T05:05:23.363Z,14.45
2022-11-17T05:05:54.905Z,14.20
2022-11-17T05:06:33.614Z,15.35
2022-11-17T05:07:06.146Z,15.55
2022-11-17T05:07:37.806Z,15.43
2022-11-17T05:08:09.373Z,15.98
2022-11-17T05:08:41.450Z,16.48
2022-11-17T05:09:16.871Z,15.75
2022-11-17T05:09:48.399Z,14.55
2022-11-17T05:10:39.901Z,15.52
2022-11-17T05:11:32.426Z,15.32
2022-11-17T05:12:23.179Z,14.77
2022-11-17T05:13:12.975Z,14.70
2022-11-17T05:13:44.489Z,15.05
2022-11-17T05:14:18.768Z,15.20
2022-11-17T05:14:50.575Z,15.73
2022-11-17T05:15:42.133Z,14.50
2022-11-17T05:16:32.413Z,14.57
2022-11-17T05:17:11.359Z,14.82
2022-11-17T05:17:43.370Z,16.45
2022-11-17T05:18:14.882Z,15.63
2022-11-17T05:18:46.403Z,16.02
2022-11-17T05:19:22.062Z,15.73
2022-11-17T05:19:53.578Z,15.00
2022-11-17T05:20:25.167Z,16.33
2022-11-17T05:21:05.047Z,15.35
2022-11-17T05:21:36.677Z,15.63
2022-11-17T05:22:28.542Z,14.50
2022-11-17T05:23:18.542Z,15.90
2022-11-17T05:23:55.619Z,15.10
2022-11-17T05:24:27.528Z,15.38
2022-11-17T05:24:59.468Z,16.15
2022-11-17T05:25:30.998Z,17.00
2022-11-17T05:26:02.541Z,16.70
2022-11-17T05:26:36.720Z,16.25
2022-11-17T05:27:08.234Z,16.52
2022-11-17T05:27:39.747Z,16.48
2022-11-17T05:28:11.265Z,16.02
2022-11-17T05:28:43.034Z,16.65
2022-11-17T05:29:17.942Z,16.40
2022-11-17T05:29:49.676Z,16.67
2022-11-17T05:30:21.201Z,15.88
2022-11-17T05:30:52.726Z,15.98
2022-11-17T05:31:25.499Z,15.75
2022-11-17T05:31:57.046Z,16.77
2022-11-17T05:32:28.581Z,15.95
2022-11-17T05:33:00.098Z,16.15
2022-11-17T05:33:37.427Z,16.85
2022-11-17T05:34:12.408Z,16.05
2022-11-17T05:34:43.950Z,16.80
2022-11-17T05:35:15.474Z,15.18
2022-11-17T05:35:46.988Z,15.40
2022-11-17T05:36:19.670Z,16.00
2022-11-17T05:36:51.199Z,16.30
2022-11-17T05:37:22.821Z,16.38
2022-11-17T05:37:54.336Z,15.73
2022-11-17T05:38:25.883Z,16.00
2022-11-17T05:38:57.636Z,14.57
2022-11-17T05:39:29.150Z,14.50
2022-11-17T05:40:00.666Z,15.65
2022-11-17T05:40:32.177Z,15.38
2022-11-17T05:41:04.076Z,15.13
2022-11-17T05:41:37.241Z,15.10
2022-11-17T05:42:08.836Z,15.07
2022-11-17T05:42:40.399Z,15.35
2022-11-17T05:43:11.948Z,15.18
2022-11-17T05:43:44.089Z,16.05
2022-11-17T05:44:15.623Z,16.02
2022-11-17T05:44:48.575Z,17.70
2022-11-17T05:45:20.208Z,16.40
2022-11-17T05:45:51.850Z,16.58
2022-11-17T05:46:23.795Z,17.15
2022-11-17T05:46:55.389Z,16.80
2022-11-17T05:47:26.900Z,17.17
2022-11-17T05:47:58.445Z,16.83
2022-11-17T05:48:30.189Z,17.08
2022-11-17T05:49:01.792Z,16.88
2022-11-17T05:49:33.351Z,16.73
2022-11-17T05:50:05.187Z,16.10
2022-11-17T05:50:36.760Z,16.50
2022-11-17T05:51:08.329Z,16.63
2022-11-17T05:51:39.889Z,15.32
2022-11-17T05:52:11.421Z,15.75
2022-11-17T05:52:42.929Z,16.10
2022-11-17T05:53:14.516Z,15.13
2022-11-17T05:53:46.462Z,15.23
2022-11-17T05:54:18.015Z,16.05
2022-11-17T05:54:49.569Z,15.15
2022-11-17T05:55:21.149Z,16.42
2022-11-17T05:56:07.126Z,16.75
2022-11-17T05:56:52.541Z,14.75
2022-11-17T05:57:30.500Z,14.82
2022-11-17T05:58:10.885Z,14.30
2022-11-17T05:58:46.057Z,14.77
2022-11-17T05:59:32.329Z,14.60
2022-11-17T06:00:04.755Z,13.45
2022-11-17T06:00:39.653Z,13.48
2022-11-17T06:01:14.070Z,14.07
2022-11-17T06:02:23.785Z,13.63
2022-11-17T06:03:08.197Z,14.00
2022-11-17T06:03:47.420Z,13.23
2022-11-17T06:04:19.622Z,13.98
2022-11-17T06:04:51.853Z,14.48
2022-11-17T06:05:24.041Z,13.25
2022-11-17T06:05:57.489Z,14.90
2022-11-17T06:06:30.152Z,13.77
2022-11-17T06:07:02.594Z,13.82
2022-11-17T06:07:36.181Z,14.07
2022-11-17T06:08:07.781Z,14.95
2022-11-17T06:08:39.313Z,14.15
2022-11-17T06:09:11.474Z,14.27
2022-11-17T06:09:43.017Z,13.73
2022-11-17T06:10:14.614Z,13.77
2022-11-17T06:10:46.460Z,14.50
2022-11-17T06:11:19.355Z,14.88
2022-11-17T06:11:50.867Z,13.77
2022-11-17T06:12:22.405Z,14.02
2022-11-17T06:12:53.930Z,14.57
2022-11-17T06:13:28.965Z,14.07
2022-11-17T06:14:00.565Z,13.02
2022-11-17T06:14:32.269Z,13.73
2022-11-17T06:15:04.134Z,13.60
2022-11-17T06:15:35.841Z,13.80
2022-11-17T06:16:10.284Z,13.15
2022-11-17T06:16:46.336Z,13.50
2022-11-17T06:17:22.408Z,14.52
2022-11-17T06:18:00.374Z,13.75
2022-11-17T06:18:44.021Z,13.70
2022-11-17T06:19:20.609Z,13.20
2022-11-17T06:20:01.216Z,13.50
2022-11-17T06:20:37.613Z,13.48
2022-11-17T06:21:10.714Z,13.07
2022-11-17T06:22:09.964Z,13.57
2022-11-17T06:22:34.584Z,14.07
2022-11-17T06:23:08.058Z,13.55
2022-11-17T06:23:39.629Z,14.02
2022-11-17T06:24:11.261Z,13.63
2022-11-17T06:24:45.200Z,14.05
2022-11-17T06:25:19.208Z,14.88
2022-11-17T06:25:50.846Z,14.25
2022-11-17T06:26:22.574Z,13.95
2022-11-17T06:26:54.176Z,13.63
2022-11-17T06:27:26.401Z,14.60
2022-11-17T06:28:01.253Z,14.00
2022-11-17T06:28:35.159Z,14.25
2022-11-17T06:29:08.487Z,13.77
2022-11-17T06:29:44.278Z,13.85
2022-11-17T06:30:16.878Z,14.75
2022-11-17T06:30:49.500Z,14.00
2022-11-17T06:31:21.313Z,14.15
2022-11-17T06:31:53.652Z,15.45
2022-11-17T06:32:25.360Z,15.23
2022-11-17T06:32:58.654Z,14.70
2022-11-17T06:33:31.751Z,16.20
2022-11-17T06:34:04.960Z,14.73
2022-11-17T06:34:37.551Z,14.73
2022-11-17T06:35:11.508Z,15.50
2022-11-17T06:35:44.766Z,15.23
2022-11-17T06:36:16.467Z,14.35
2022-11-17T06:36:48.007Z,14.85
2022-11-17T06:37:20.305Z,14.88
2022-11-17T06:37:51.823Z,15.48
2022-11-17T06:38:23.339Z,15.43
2022-11-17T06:38:54.898Z,15.00
2022-11-17T06:39:26.585Z,15.65
2022-11-17T06:39:58.143Z,14.82
2022-11-17T06:40:29.916Z,15.18
2022-11-17T06:41:07.378Z,15.18
2022-11-17T06:41:42.032Z,15.02
2022-11-17T06:42:13.567Z,14.77
2022-11-17T06:43:03.623Z,15.23
2022-11-17T06:43:35.458Z,13.38
2022-11-17T06:44:07.238Z,14.80
2022-11-17T06:44:39.272Z,14.60
2022-11-17T06:45:11.921Z,16.83
2022-11-17T06:45:46.491Z,16.83
2022-11-17T06:46:19.069Z,14.98
2022-11-17T06:46:50.627Z,15.68
2022-11-17T06:47:22.150Z,15.18
2022-11-17T06:47:54.191Z,15.32
2022-11-17T06:48:27.169Z,16.00
2022-11-17T06:48:58.686Z,14.18
2022-11-17T06:49:30.275Z,15.00
2022-11-17T06:50:02.103Z,14.77
2022-11-17T06:50:34.876Z,14.52
2022-11-17T06:51:06.824Z,14.68
2022-11-17T06:51:43.761Z,15.35
2022-11-17T06:52:17.112Z,14.05
2022-11-17T06:52:48.679Z,15.50
2022-11-17T06:53:22.988Z,15.68
2022-11-17T06:53:54.666Z,15.07
2022-11-17T06:54:26.300Z,15.82
2022-11-17T06:54:57.852Z,16.75
2022-11-17T06:55:29.630Z,15.75
2022-11-17T06:56:08.550Z,15.73
2022-11-17T06:56:40.660Z,14.38
2022-11-17T06:57:12.254Z,15.75
2022-11-17T06:57:46.602Z,15.45
2022-11-17T06:58:22.042Z,15.02
2022-11-17T06:58:54.337Z,17.30
2022-11-17T06:59:25.967Z,17.92
2022-11-17T06:59:57.530Z,17.98
2022-11-17T07:00:30.448Z,17.67
2022-11-17T07:01:10.014Z,17.77
2022-11-17T07:01:41.683Z,18.35
2022-11-17T07:02:13.312Z,17.77
2022-11-17T07:02:44.991Z,18.50
2022-11-17T07:03:16.586Z,16.20
2022-11-17T07:03:48.172Z,16.00
2022-11-17T07:04:19.797Z,15.98
2022-11-17T07:04:51.452Z,16.10
2022-11-17T07:05:23.022Z,16.70
2022-11-17T07:05:54.654Z,15.23
2022-11-17T07:06:26.304Z,16.40
2022-11-17T07:06:57.943Z,16.77
2022-11-17T07:07:29.612Z,17.70
2022-11-17T07:08:04.026Z,16.15
2022-11-17T07:08:36.184Z,15.57
2022-11-17T07:09:08.154Z,16.85
2022-11-17T07:09:39.825Z,15.75
2022-11-17T07:10:11.491Z,15.05
2022-11-17T07:10:48.979Z,15.70
2022-11-17T07:11:20.990Z,17.30
2022-11-17T07:11:52.627Z,17.27
2022-11-17T07:12:24.255Z,16.83
2022-11-17T07:12:56.157Z,17.48
2022-11-17T07:13:27.716Z,16.45
2022-11-17T07:13:59.301Z,15.43
2022-11-17T07:14:31.389Z,16.10
2022-11-17T07:15:03.133Z,15.40
2022-11-17T07:15:34.746Z,15.88
2022-11-17T07:16:20.118Z,16.77
2022-11-17T07:16:54.723Z,16.30
2022-11-17T07:17:26.339Z,16.35
2022-11-17T07:17:58.616Z,17.40
2022-11-17T07:18:30.234Z,17.25
2022-11-17T07:19:03.825Z,16.83
2022-11-17T07:19:35.547Z,16.77
2022-11-17T07:20:07.747Z,16.25
2022-11-17T07:20:39.350Z,16.23
2022-11-17T07:21:13.839Z,15.70
2022-11-17T07:21:45.419Z,14.95
2022-11-17T07:22:17.047Z,16.05
2022-11-17T07:22:49.879Z,16.38
2022-11-17T07:23:22.298Z,14.90
2022-11-17T07:23:54.040Z,15.80
2022-11-17T07:24:25.675Z,15.93
2022-11-17T07:24:57.281Z,16.02
2022-11-17T07:25:28.851Z,15.50
2022-11-17T07:26:01.352Z,15.52
2022-11-17T07:26:32.983Z,15.95
2022-11-17T07:27:06.497Z,16.00
2022-11-17T07:27:38.799Z,16.67
2022-11-17T07:28:10.466Z,15.90
2022-11-17T07:28:42.059Z,17.05
2022-11-17T07:29:13.724Z,15.35
2022-11-17T07:29:45.354Z,16.55
2022-11-17T07:30:17.052Z,15.85
2022-11-17T07:30:48.685Z,15.18
2022-11-17T07:31:20.655Z,16.17
2022-11-17T07:31:52.328Z,16.23
2022-11-17T07:32:24.248Z,16.50
2022-11-17T07:32:57.613Z,16.30
2022-11-17T07:33:29.405Z,15.63
2022-11-17T07:34:00.979Z,16.08
2022-11-17T07:34:32.596Z,15.57
2022-11-17T07:35:05.978Z,14.40
2022-11-17T07:35:37.585Z,15.38
2022-11-17T07:36:11.736Z,14.63
2022-11-17T07:36:43.340Z,16.23
2022-11-17T07:37:14.913Z,15.48
2022-11-17T07:37:46.590Z,15.48
2022-11-17T07:38:18.176Z,16.10
2022-11-17T07:38:49.781Z,15.68
2022-11-17T07:39:22.152Z,15.70
2022-11-17T07:39:53.857Z,14.32
2022-11-17T07:40:25.758Z,15.35